Time;durP1;ratioP1;P1;durP2;ratioP2;P2;SDS_P1;SDS_P2;PMS_P1;PMS_P2;Temp;Humidity;BMP_temperature;BMP_pressure;BME280_temperature;BME280_humidity;BME280_pressure;Samples;Min_cycle;Max_cycle;Signal;HPM_P1;HPM_P2
2023/02/13 00:01:38;;;;;;;7.60;6.90;;;;;;;11.32;83.57;103773.72;6203935;28;20226;-70
2023/02/13 00:04:59;;;;;;;5.93;5.07;;;;;;;11.59;82.76;103775.16;6207698;28;21142;-70
2023/02/13 00:08:21;;;;;;;6.43;5.83;;;;;;;11.59;81.95;103780.56;6203141;28;20324;-70
2023/02/13 00:11:42;;;;;;;6.53;5.30;;;;;;;11.45;82.51;103780.31;6208314;28;20528;-71
2023/02/13 00:15:03;;;;;;;7.30;5.23;;;;;;;11.56;83.01;103780.69;6205935;28;20221;-71
2023/02/13 00:18:25;;;;;;;6.37;5.77;;;;;;;11.54;81.79;103771.78;6209978;28;20260;-70
2023/02/13 00:21:46;;;;;;;6.63;5.47;;;;;;;11.21;83.24;103775.09;6206356;28;20233;-71
2023/02/13 00:25:09;;;;;;;6.00;5.10;;;;;;;11.54;82.22;103772.66;6211092;28;20611;-70
2023/02/13 00:28:30;;;;;;;7.03;5.53;;;;;;;11.58;81.89;103778.78;6208740;28;20224;-71
2023/02/13 00:31:51;;;;;;;7.33;6.03;;;;;;;11.01;83.71;103769.69;6208584;28;20233;-70
2023/02/13 00:35:12;;;;;;;7.63;5.30;;;;;;;10.88;85.42;103767.59;6200852;28;20221;-70
2023/02/13 00:38:33;;;;;;;5.90;5.07;;;;;;;10.82;85.10;103762.47;6205488;28;20312;-70
2023/02/13 00:41:55;;;;;;;7.30;5.60;;;;;;;11.28;83.11;103771.16;6205851;28;20226;-70
2023/02/13 00:45:16;;;;;;;6.97;5.40;;;;;;;11.26;83.83;103761.38;6201617;28;20406;-70
2023/02/13 00:48:37;;;;;;;6.20;5.67;;;;;;;11.29;83.32;103769.31;6208289;28;20312;-70
2023/02/13 00:51:58;;;;;;;8.43;5.43;;;;;;;11.00;84.10;103770.66;6206788;28;20228;-71
2023/02/13 00:55:19;;;;;;;7.77;5.57;;;;;;;11.37;82.61;103763.59;6211650;28;20311;-70
2023/02/13 00:58:42;;;;;;;8.03;5.57;;;;;;;11.22;82.96;103766.03;6203547;28;20221;-70
2023/02/13 01:02:03;;;;;;;7.83;5.70;;;;;;;11.24;82.64;103768.69;6207033;28;20305;-69
2023/02/13 01:05:26;;;;;;;9.77;6.30;;;;;;;11.42;82.02;103766.94;6208187;28;20221;-70
2023/02/13 01:08:47;;;;;;;7.37;5.83;;;;;;;10.35;86.12;103768.06;6199516;28;20233;-71
2023/02/13 01:12:09;;;;;;;7.57;6.43;;;;;;;10.81;85.07;103768.81;6207654;28;20233;-70
2023/02/13 01:15:32;;;;;;;9.30;5.77;;;;;;;11.05;83.02;103755.13;6204272;28;20610;-69
2023/02/13 01:18:53;;;;;;;5.23;4.73;;;;;;;11.16;83.14;103763.59;6207275;28;20233;-70
2023/02/13 01:22:14;;;;;;;5.67;4.23;;;;;;;10.53;84.93;103765.56;6207640;28;20233;-69
2023/02/13 01:25:34;;;;;;;5.63;5.13;;;;;;;11.21;82.60;103755.31;6183461;28;20241;-70
2023/02/13 01:28:56;;;;;;;7.57;5.47;;;;;;;11.51;81.39;103756.59;6201549;28;20378;-70
2023/02/13 01:32:18;;;;;;;7.70;5.17;;;;;;;10.90;83.72;103763.03;6202066;28;20229;-70
2023/02/13 01:35:40;;;;;;;6.47;5.87;;;;;;;10.73;84.37;103754.78;6208362;28;20234;-69
2023/02/13 01:39:01;;;;;;;6.30;5.70;;;;;;;10.84;83.24;103745.28;6204017;28;20259;-69
2023/02/13 01:42:26;;;;;;;8.83;5.47;;;;;;;11.07;83.17;103747.84;6206319;28;20233;-70
2023/02/13 01:45:52;;;;;;;8.30;5.67;;;;;;;10.76;83.61;103738.47;6212125;28;20220;-69
2023/02/13 01:49:25;;;;;;;7.63;6.40;;;;;;;11.02;82.24;103732.78;6206108;28;20236;-69
2023/02/13 01:52:50;;;;;;;5.87;4.67;;;;;;;11.08;82.53;103735.19;6199713;28;20348;-70
2023/02/13 01:56:14;;;;;;;8.63;6.63;;;;;;;11.42;81.00;103727.31;6210658;28;20312;-70
2023/02/13 01:59:41;;;;;;;5.03;4.50;;;;;;;10.78;82.89;103731.19;6205924;28;20629;-70
2023/02/13 02:03:05;;;;;;;8.07;6.80;;;;;;;11.19;81.78;103732.91;6199320;28;20225;-70
2023/02/13 02:06:37;;;;;;;6.07;5.17;;;;;;;10.81;81.96;103731.91;6212781;28;21384;-71
2023/02/13 02:10:01;;;;;;;7.80;5.67;;;;;;;10.90;82.51;103725.22;6204830;28;20245;-69
2023/02/13 02:13:22;;;;;;;5.60;4.97;;;;;;;10.69;82.94;103727.06;6201256;28;20259;-70
2023/02/13 02:16:45;;;;;;;4.43;4.03;;;;;;;10.50;82.83;103717.13;6215421;28;20236;-70
2023/02/13 02:20:20;;;;;;;6.10;4.50;;;;;;;10.55;83.17;103710.59;6189476;28;20233;-70
2023/02/13 02:24:05;;;;;;;7.73;6.57;;;;;;;10.68;81.43;103716.34;6205066;28;20236;-70
2023/02/13 02:27:54;;;;;;;6.10;4.30;;;;;;;10.58;81.57;103715.84;6201435;28;20241;-70
2023/02/13 02:31:52;;;;;;;4.33;3.90;;;;;;;10.84;79.92;103715.59;6196531;28;20232;-70
2023/02/13 02:35:23;;;;;;;6.47;4.50;;;;;;;10.49;81.79;103716.28;6204015;28;20686;-70
2023/02/13 02:39:00;;;;;;;4.87;4.13;;;;;;;10.75;80.00;103720.50;6199432;28;20232;-71
2023/02/13 02:42:30;;;;;;;7.30;5.63;;;;;;;10.89;79.17;103718.09;6203442;28;20229;-69
2023/02/13 02:45:57;;;;;;;5.97;4.57;;;;;;;10.85;79.53;103713.75;6210634;28;20225;-71
2023/02/13 02:53:09;;;;;;;6.63;4.40;;;;;;;10.33;80.90;103717.84;6197912;28;20236;-69
2023/02/13 02:56:40;;;;;;;4.77;4.23;;;;;;;10.55;80.34;103717.81;6210147;28;20744;-70
2023/02/13 03:07:21;;;;;;;4.90;4.10;;;;;;;10.69;78.85;103707.28;6202315;28;20237;-69
2023/02/13 03:14:21;;;;;;;7.27;5.57;;;;;;;10.64;79.13;103701.25;6198949;28;20606;-70
2023/02/13 03:25:29;;;;;;;5.93;4.50;;;;;;;11.06;77.41;103712.78;6213155;28;20225;-70
2023/02/13 03:32:43;;;;;;;6.13;5.40;;;;;;;10.51;78.44;103706.28;6201872;28;20260;-69
2023/02/13 03:40:00;;;;;;;6.27;5.63;;;;;;;10.63;78.69;103721.06;6211096;28;20228;-69
2023/02/13 03:43:24;;;;;;;3.20;2.90;;;;;;;10.51;79.99;103725.16;6193746;28;20252;-69
2023/02/13 03:46:48;;;;;;;7.60;4.23;;;;;;;10.86;78.69;103723.63;6214087;28;20264;-69
2023/02/13 03:50:10;;;;;;;5.77;3.73;;;;;;;10.33;79.89;103717.84;6207046;28;20229;-69
2023/02/13 03:53:35;;;;;;;4.23;3.83;;;;;;;10.67;79.68;103720.84;6207411;28;20255;-70
2023/02/13 04:00:40;;;;;;;5.00;4.50;;;;;;;11.12;77.90;103728.72;6213709;28;20264;-69
2023/02/13 04:04:07;;;;;;;5.77;5.07;;;;;;;11.23;76.88;103721.88;6210221;28;20228;-70
2023/02/13 04:07:32;;;;;;;5.20;4.43;;;;;;;11.38;76.58;103714.00;6214615;28;20236;-70
2023/02/13 04:10:58;;;;;;;5.30;4.53;;;;;;;11.37;75.46;103720.38;6207348;28;20264;-69
2023/02/13 04:14:21;;;;;;;5.90;4.83;;;;;;;11.28;75.76;103722.53;6215824;28;20669;-68
2023/02/13 04:17:48;;;;;;;4.30;3.90;;;;;;;11.48;74.61;103718.91;6206908;28;20253;-70
2023/02/13 04:21:09;;;;;;;8.23;3.53;;;;;;;10.77;76.55;103724.00;6217520;28;20287;-69
2023/02/13 04:24:30;;;;;;;4.97;3.67;;;;;;;11.12;76.12;103726.00;6217222;28;20256;-69
2023/02/13 04:27:51;;;;;;;4.27;3.60;;;;;;;11.34;73.81;103716.00;6202902;28;20315;-70
2023/02/13 04:31:12;;;;;;;4.80;3.97;;;;;;;10.53;76.41;103719.69;6219729;28;20234;-69
2023/02/13 04:34:34;;;;;;;4.10;3.70;;;;;;;10.82;75.77;103714.78;6205531;28;20745;-70
2023/02/13 04:37:55;;;;;;;4.27;3.87;;;;;;;11.20;74.53;103718.47;6202356;28;20814;-69
2023/02/13 04:41:17;;;;;;;3.67;2.80;;;;;;;11.21;74.38;103718.38;6213974;28;20245;-69
2023/02/13 04:44:37;;;;;;;3.17;2.70;;;;;;;11.27;73.72;103720.78;6213237;28;20244;-70
2023/02/13 04:47:58;;;;;;;5.40;4.20;;;;;;;11.42;73.45;103719.22;6196967;28;20323;-69
2023/02/13 04:51:21;;;;;;;8.17;6.37;;;;;;;11.68;72.62;103720.72;6217712;28;20237;-71
2023/02/13 04:54:42;;;;;;;7.03;5.90;;;;;;;11.56;71.17;103718.53;6209447;28;20512;-70
2023/02/13 04:58:03;;;;;;;4.67;4.27;;;;;;;11.50;72.12;103717.00;6200058;28;20232;-70
2023/02/13 05:01:23;;;;;;;5.33;4.83;;;;;;;11.59;70.67;103721.13;6213468;28;20461;-69
2023/02/13 05:04:44;;;;;;;4.80;4.27;;;;;;;11.48;71.04;103724.31;6210913;28;20237;-71
2023/02/13 05:08:07;;;;;;;11.90;7.83;;;;;;;11.39;70.70;103719.34;6213509;28;20233;-70
2023/02/13 05:11:28;;;;;;;6.67;5.97;;;;;;;11.46;71.35;103714.53;6197799;28;20233;-69
2023/02/13 05:14:49;;;;;;;7.83;6.10;;;;;;;11.61;71.06;103714.69;6203954;28;20229;-69
2023/02/13 05:18:10;;;;;;;4.33;3.93;;;;;;;11.65;70.68;103705.50;6207303;28;20248;-70
2023/02/13 05:25:10;;;;;;;12.17;10.93;;;;;;;11.98;68.77;103719.22;6205483;28;20229;-69
2023/02/13 05:32:09;;;;;;;4.50;4.10;;;;;;;11.65;69.54;103721.69;6178776;28;20253;-70
2023/02/13 05:35:30;;;;;;;5.50;5.00;;;;;;;11.76;68.67;103718.53;6204894;28;20240;-69
2023/02/13 05:38:51;;;;;;;6.37;4.20;;;;;;;11.71;68.46;103724.13;6200899;28;20244;-70
2023/02/13 05:42:12;;;;;;;8.50;3.47;;;;;;;11.75;68.17;103722.16;6210955;28;20260;-70
2023/02/13 05:45:33;;;;;;;5.30;3.83;;;;;;;11.78;67.86;103717.50;6210269;28;20237;-69
2023/02/13 05:48:54;;;;;;;5.50;4.93;;;;;;;11.73;68.52;103716.84;6206863;28;20240;-70
2023/02/13 05:52:15;;;;;;;5.03;4.13;;;;;;;11.89;66.70;103723.25;6212674;28;20670;-70
2023/02/13 05:55:36;;;;;;;6.67;4.40;;;;;;;11.89;67.94;103719.69;6199931;28;20221;-70
2023/02/13 05:58:58;;;;;;;6.73;4.40;;;;;;;12.00;67.56;103723.59;6202797;28;20230;-70
2023/02/13 06:02:19;;;;;;;4.07;3.03;;;;;;;11.87;67.57;103726.97;6198960;28;20271;-71
2023/02/13 06:05:41;;;;;;;5.40;4.07;;;;;;;11.86;67.06;103734.22;6194133;28;20512;-70
2023/02/13 06:09:01;;;;;;;5.03;3.90;;;;;;;11.56;68.87;103734.75;6204799;28;20539;-70
2023/02/13 06:12:22;;;;;;;3.40;3.10;;;;;;;11.30;67.99;103724.31;6208208;28;20533;-69
2023/02/13 06:15:45;;;;;;;7.03;4.73;;;;;;;11.42;68.24;103732.72;6205618;28;20232;-70
2023/02/13 06:19:06;;;;;;;3.87;3.13;;;;;;;11.60;66.77;103729.13;6205332;28;20234;-69
2023/02/13 06:22:27;;;;;;;4.13;3.20;;;;;;;11.59;66.77;103735.50;6205654;28;20221;-70
2023/02/13 06:25:48;;;;;;;4.87;4.40;;;;;;;11.13;68.04;103734.06;6204002;28;20237;-70
2023/02/13 06:29:10;;;;;;;4.90;4.10;;;;;;;11.35;67.15;103738.47;6201160;28;20263;-70
2023/02/13 06:32:32;;;;;;;3.83;3.53;;;;;;;11.41;67.29;103738.19;6203382;28;20228;-71
2023/02/13 06:35:52;;;;;;;8.13;4.50;;;;;;;11.53;66.59;103737.63;6204501;28;20233;-72
2023/02/13 06:39:14;;;;;;;4.70;3.90;;;;;;;11.54;66.58;103744.75;6204294;28;20229;-70
2023/02/13 06:42:34;;;;;;;4.10;3.43;;;;;;;11.06;68.14;103748.78;6201070;28;20233;-71
2023/02/13 06:45:55;;;;;;;8.33;4.47;;;;;;;11.32;67.87;103763.81;6186760;28;20315;-70
2023/02/13 06:49:18;;;;;;;3.30;3.07;;;;;;;11.50;67.62;103751.25;6194609;28;20610;-70
2023/02/13 06:52:38;;;;;;;8.10;6.17;;;;;;;11.55;67.00;103766.31;6206475;28;20250;-70
2023/02/13 06:55:59;;;;;;;4.93;4.47;;;;;;;11.62;66.99;103765.06;6208322;28;20233;-69
2023/02/13 06:59:20;;;;;;;4.77;4.37;;;;;;;11.19;67.51;103776.09;6197305;28;20585;-70
2023/02/13 07:02:41;;;;;;;3.77;3.47;;;;;;;11.49;66.91;103780.13;6192734;28;20233;-69
2023/02/13 07:06:03;;;;;;;7.97;4.53;;;;;;;11.25;66.98;103778.53;6210531;28;20247;-70
2023/02/13 07:09:24;;;;;;;4.60;3.47;;;;;;;11.46;66.24;103776.66;6207080;28;20248;-70
2023/02/13 07:12:45;;;;;;;7.47;6.00;;;;;;;11.48;67.64;103780.16;6198172;28;20232;-68
2023/02/13 07:16:06;;;;;;;6.67;4.40;;;;;;;11.40;68.01;103785.94;6213889;28;20938;-71
2023/02/13 07:19:27;;;;;;;5.60;5.03;;;;;;;11.42;67.58;103788.56;6205105;28;20652;-70
2023/02/13 07:22:50;;;;;;;5.77;4.80;;;;;;;11.46;67.86;103788.34;6188907;28;20229;-70
2023/02/13 07:26:11;;;;;;;6.10;4.67;;;;;;;11.37;69.06;103787.91;6200091;28;20261;-70
2023/02/13 07:29:31;;;;;;;5.67;4.17;;;;;;;11.12;69.71;103782.69;6197085;28;20255;-69
2023/02/13 07:32:52;;;;;;;7.87;5.10;;;;;;;11.38;69.66;103779.72;6197503;28;20233;-69
2023/02/13 07:36:13;;;;;;;7.03;5.17;;;;;;;11.56;68.85;103786.97;6210151;28;20229;-69
2023/02/13 07:39:37;;;;;;;7.23;5.50;;;;;;;11.41;69.91;103784.97;6204365;28;20232;-69
2023/02/13 07:43:00;;;;;;;5.73;5.20;;;;;;;11.53;68.92;103789.84;6195344;28;20236;-70
2023/02/13 07:46:21;;;;;;;10.03;7.93;;;;;;;11.82;67.81;103793.91;6218370;28;20248;-69
2023/02/13 07:49:43;;;;;;;6.90;6.20;;;;;;;11.55;68.32;103798.75;6206506;28;20244;-69
2023/02/13 07:53:04;;;;;;;5.77;5.13;;;;;;;11.44;69.41;103792.94;6208610;28;20311;-69
2023/02/13 07:56:26;;;;;;;6.17;5.60;;;;;;;11.56;69.02;103805.00;6209612;28;20226;-69
2023/02/13 07:59:47;;;;;;;6.00;5.40;;;;;;;11.68;68.44;103804.50;6205135;28;20228;-69
2023/02/13 08:03:11;;;;;;;5.93;5.23;;;;;;;11.80;68.46;103803.91;6195256;28;20240;-69
2023/02/13 08:06:32;;;;;;;5.80;5.20;;;;;;;11.68;68.01;103812.59;6215222;28;20568;-71
2023/02/13 08:13:33;;;;;;;6.33;5.07;;;;;;;11.92;67.58;103815.03;6203710;28;20233;-71
2023/02/13 08:16:55;;;;;;;7.93;5.47;;;;;;;12.07;67.36;103807.13;6198490;28;20229;-69
2023/02/13 08:20:16;;;;;;;8.77;6.20;;;;;;;11.70;68.59;103816.09;6213024;28;20225;-70
2023/02/13 08:23:37;;;;;;;15.50;5.70;;;;;;;12.03;66.47;103814.50;6209964;28;20231;-71
2023/02/13 08:26:58;;;;;;;8.43;5.93;;;;;;;11.80;65.87;103810.19;6210883;28;20225;-71
2023/02/13 08:30:20;;;;;;;5.63;5.07;;;;;;;11.96;66.09;103807.63;6194766;28;20225;-69
2023/02/13 08:33:41;;;;;;;5.23;4.70;;;;;;;11.95;65.75;103814.84;6192016;28;20233;-69
2023/02/13 08:37:03;;;;;;;5.00;4.50;;;;;;;12.04;65.19;103802.72;6201873;28;20238;-71
2023/02/13 08:40:24;;;;;;;5.43;4.77;;;;;;;11.94;65.87;103805.00;6213506;28;20241;-68
2023/02/13 08:43:44;;;;;;;5.07;4.20;;;;;;;12.10;65.00;103806.97;6191993;28;20237;-68
2023/02/13 08:47:07;;;;;;;9.33;5.33;;;;;;;12.06;65.58;103808.09;6199472;28;20275;-71
2023/02/13 08:50:28;;;;;;;7.87;5.23;;;;;;;12.06;65.83;103805.38;6191966;28;20237;-69
2023/02/13 08:53:48;;;;;;;6.07;4.67;;;;;;;12.04;64.61;103810.84;6186666;28;20237;-68
2023/02/13 08:57:09;;;;;;;6.90;5.90;;;;;;;11.57;64.83;103802.25;6196431;28;20293;-69
2023/02/13 09:00:31;;;;;;;7.00;5.60;;;;;;;11.18;65.34;103804.06;6191171;28;20225;-70
2023/02/13 09:03:53;;;;;;;7.07;6.43;;;;;;;11.86;64.47;103803.63;6192015;28;20778;-69
2023/02/13 09:07:14;;;;;;;5.07;3.80;;;;;;;11.89;64.40;103798.09;6190643;28;20619;-69
2023/02/13 09:10:35;;;;;;;6.53;3.70;;;;;;;12.02;63.04;103819.03;6190458;28;20723;-68
2023/02/13 09:13:55;;;;;;;5.27;4.63;;;;;;;11.98;61.75;103814.72;6205616;28;20227;-71
2023/02/13 09:17:18;;;;;;;7.23;5.07;;;;;;;12.20;61.42;103811.88;6200168;28;20226;-71
2023/02/13 09:20:40;;;;;;;4.97;4.40;;;;;;;12.10;61.66;103823.22;6203386;28;20233;-69
2023/02/13 09:24:01;;;;;;;7.87;6.70;;;;;;;11.49;63.71;103825.16;6200401;28;20521;-71
2023/02/13 09:27:22;;;;;;;7.13;5.83;;;;;;;11.62;64.29;103821.81;6201581;28;20244;-68
2023/02/13 09:30:43;;;;;;;6.10;4.47;;;;;;;11.80;63.37;103818.31;6206228;28;20511;-68
2023/02/13 09:34:04;;;;;;;6.17;5.40;;;;;;;11.87;63.42;103806.22;6199582;28;20232;-70
2023/02/13 09:37:26;;;;;;;7.33;4.17;;;;;;;11.81;63.27;103817.34;6199108;28;20233;-70
2023/02/13 09:40:53;;;;;;;9.33;5.63;;;;;;;12.25;62.49;103817.03;6195714;28;20225;-70
2023/02/13 09:47:48;;;;;;;7.87;4.77;;;;;;;12.27;63.27;103815.13;6309247;27;20976;-69
2023/02/13 09:51:15;;;;;;;7.00;3.73;;;;;;;12.53;62.53;103807.50;6297359;28;20234;-68
2023/02/13 09:54:36;;;;;;;6.53;4.77;;;;;;;12.70;60.66;103817.47;6301205;28;20227;-70
2023/02/13 09:58:04;;;;;;;6.47;4.10;;;;;;;12.46;59.76;103803.34;6292397;28;20231;-69
2023/02/13 10:01:30;;;;;;;7.60;6.50;;;;;;;12.50;59.25;103804.94;6299405;28;21085;-69
2023/02/13 10:05:03;;;;;;;5.83;4.97;;;;;;;12.37;60.62;103801.06;6292417;28;20221;-71
2023/02/13 10:08:37;;;;;;;7.07;4.93;;;;;;;12.38;60.14;103808.25;6281548;28;20360;-70
2023/02/13 10:12:14;;;;;;;6.17;4.33;;;;;;;12.75;59.84;103808.16;6288359;28;22281;-70
2023/02/13 10:15:42;;;;;;;11.60;7.50;;;;;;;12.78;59.13;103807.13;6294062;28;20316;-70
2023/02/13 10:19:11;;;;;;;6.87;5.77;;;;;;;12.06;59.12;103803.53;6303067;28;20699;-71
2023/02/13 10:22:39;;;;;;;17.97;13.10;;;;;;;12.20;60.48;103806.47;6296633;28;20837;-71
2023/02/13 10:26:02;;;;;;;12.63;8.80;;;;;;;12.62;59.48;103803.47;6292339;28;21122;-69
2023/02/13 10:33:20;;;;;;;6.33;4.83;;;;;;;12.61;59.06;103796.28;6271655;28;20257;-70
2023/02/13 10:36:44;;;;;;;7.47;5.30;;;;;;;12.74;58.43;103803.72;6295441;27;20225;-70
2023/02/13 10:40:11;;;;;;;9.60;6.60;;;;;;;12.68;58.68;103801.28;6279014;27;20310;-71
2023/02/13 10:43:40;;;;;;;8.40;4.33;;;;;;;12.78;58.82;103799.88;6272561;27;20230;-71
2023/02/13 10:47:10;;;;;;;9.53;6.77;;;;;;;12.91;58.18;103804.66;6271898;27;20787;-69
2023/02/13 10:50:36;;;;;;;6.43;5.80;;;;;;;12.96;58.11;103806.16;6257839;27;20910;-71
2023/02/13 10:54:22;;;;;;;6.50;4.57;;;;;;;12.67;57.66;103796.84;6260494;28;20226;-70
2023/02/13 10:58:12;;;;;;;5.33;3.97;;;;;;;12.28;58.41;103793.44;6258494;27;20222;-69
2023/02/13 11:01:39;;;;;;;8.73;6.27;;;;;;;12.54;57.69;103787.59;6231688;28;20242;-70
2023/02/13 11:05:07;;;;;;;6.70;6.07;;;;;;;12.72;59.04;103794.75;6252494;28;20725;-69
2023/02/13 11:08:32;;;;;;;6.17;5.23;;;;;;;12.68;57.70;103787.75;6264648;28;20233;-69
2023/02/13 11:11:56;;;;;;;7.50;5.40;;;;;;;12.64;58.51;103790.72;6294293;28;20226;-69
2023/02/13 11:15:25;;;;;;;5.80;5.20;;;;;;;12.93;57.85;103787.38;6290528;27;20251;-69
2023/02/13 11:18:50;;;;;;;7.53;5.17;;;;;;;13.06;57.86;103784.94;6266814;28;20313;-67
2023/02/13 11:22:13;;;;;;;7.23;5.63;;;;;;;12.98;58.76;103779.00;6278300;28;20255;-69
2023/02/13 11:25:33;;;;;;;6.70;5.23;;;;;;;12.60;59.26;103789.13;6296178;28;20246;-70
2023/02/13 11:28:57;;;;;;;8.37;7.23;;;;;;;12.87;59.72;103779.56;6289039;27;20523;-69
2023/02/13 11:32:22;;;;;;;11.20;6.70;;;;;;;12.99;59.54;103768.09;6273805;27;20520;-70
2023/02/13 11:35:45;;;;;;;9.60;7.80;;;;;;;11.56;62.23;103768.06;6286437;28;20472;-70
2023/02/13 11:39:17;;;;;;;10.43;6.13;;;;;;;11.82;62.50;103772.28;6293013;28;20242;-70
2023/02/13 11:42:43;;;;;;;8.87;6.97;;;;;;;12.14;62.62;103762.63;6282583;28;20242;-67
2023/02/13 11:46:06;;;;;;;7.80;6.60;;;;;;;12.67;60.53;103768.91;6288999;28;20247;-69
2023/02/13 11:49:31;;;;;;;9.57;7.47;;;;;;;12.83;60.32;103776.13;6299252;27;20230;-69
2023/02/13 11:53:01;;;;;;;11.93;8.60;;;;;;;12.84;59.74;103780.63;6281786;28;20222;-68
2023/02/13 11:56:22;;;;;;;8.53;7.40;;;;;;;12.87;59.29;103784.13;6286769;28;20230;-69
2023/02/13 11:59:45;;;;;;;7.70;5.90;;;;;;;12.94;59.41;103788.25;6313596;27;20533;-67
2023/02/13 12:03:27;;;;;;;9.83;6.07;;;;;;;12.89;59.23;103774.09;6292766;27;20383;-69
2023/02/13 12:07:02;;;;;;;7.97;6.27;;;;;;;12.18;62.00;103767.81;6273397;28;20255;-69
2023/02/13 12:10:24;;;;;;;8.53;7.30;;;;;;;11.96;62.76;103765.25;6307525;27;20254;-69
2023/02/13 12:13:46;;;;;;;8.97;6.50;;;;;;;12.08;62.79;103765.63;6297420;28;20221;-70
2023/02/13 12:17:13;;;;;;;14.77;8.37;;;;;;;11.81;63.11;103757.00;6303096;28;20502;-69
2023/02/13 12:20:48;;;;;;;10.43;7.20;;;;;;;11.68;64.87;103753.16;6303730;27;20222;-69
2023/02/13 12:24:24;;;;;;;8.87;7.40;;;;;;;11.08;66.48;103757.69;6303491;27;20230;-70
2023/02/13 12:27:55;;;;;;;8.93;6.37;;;;;;;12.20;63.56;103759.59;6267874;28;20227;-71
2023/02/13 12:31:34;;;;;;;11.13;8.93;;;;;;;11.84;63.19;103759.56;6291134;28;20239;-68
2023/02/13 12:35:18;;;;;;;10.27;7.33;;;;;;;12.21;62.28;103753.22;6264249;28;21477;-69
2023/02/13 12:38:52;;;;;;;9.77;7.50;;;;;;;11.74;64.16;103753.72;6259130;28;20234;-68
2023/02/13 12:42:28;;;;;;;10.10;7.60;;;;;;;10.90;67.08;103750.41;6290833;28;20701;-68
2023/02/13 12:45:57;;;;;;;10.70;7.93;;;;;;;11.35;65.95;103741.19;6296809;28;20231;-69
2023/02/13 12:49:34;;;;;;;9.97;7.20;;;;;;;12.06;63.51;103741.34;6286376;28;20357;-69
2023/02/13 12:53:15;;;;;;;12.10;7.27;;;;;;;11.86;64.55;103739.63;6292155;28;21038;-69
2023/02/13 12:56:50;;;;;;;11.07;7.47;;;;;;;11.23;65.62;103737.22;6294287;28;20678;-68
2023/02/13 13:00:25;;;;;;;11.77;8.90;;;;;;;11.78;65.26;103747.22;6277894;28;20853;-69
2023/02/13 13:03:58;;;;;;;9.93;7.43;;;;;;;11.88;64.91;103743.13;6285807;27;20274;-68
2023/02/13 13:07:41;;;;;;;10.90;7.57;;;;;;;11.88;64.77;103742.25;6278328;28;20226;-69
2023/02/13 13:11:19;;;;;;;11.30;9.50;;;;;;;12.20;63.31;103738.84;6301642;28;20234;-69
2023/02/13 13:14:48;;;;;;;10.00;7.40;;;;;;;11.52;64.52;103735.84;6300500;28;20230;-69
2023/02/13 13:18:27;;;;;;;14.70;7.93;;;;;;;11.85;64.09;103737.84;6294718;27;20248;-67
2023/02/13 13:21:55;;;;;;;12.10;8.10;;;;;;;12.23;63.57;103737.78;6295577;28;20278;-69
2023/02/13 13:25:24;;;;;;;10.87;7.47;;;;;;;11.96;62.60;103742.75;6269324;28;20227;-68
2023/02/13 13:28:48;;;;;;;10.47;6.63;;;;;;;12.03;63.76;103742.38;6267404;28;20246;-69
2023/02/13 13:32:14;;;;;;;9.40;8.30;;;;;;;11.18;65.97;103737.41;6287780;28;21017;-70
2023/02/13 13:35:39;;;;;;;12.47;8.93;;;;;;;11.97;64.47;103734.56;6277148;28;20341;-70
2023/02/13 13:39:06;;;;;;;10.13;8.90;;;;;;;12.36;63.28;103729.00;6291437;27;20225;-70
2023/02/13 13:42:36;;;;;;;13.23;7.23;;;;;;;13.02;61.76;103727.31;6292938;28;20226;-70
2023/02/13 13:46:06;;;;;;;12.53;9.80;;;;;;;11.99;61.71;103723.69;6287740;28;20810;-68
2023/02/13 13:49:37;;;;;;;13.57;8.90;;;;;;;12.26;61.56;103714.19;6281544;28;20226;-68
2023/02/13 13:53:11;;;;;;;9.87;7.70;;;;;;;12.31;60.52;103711.22;6261585;28;20617;-71
2023/02/13 13:57:04;;;;;;;12.37;9.33;;;;;;;12.25;60.92;103715.13;6298873;28;20261;-70
2023/02/13 14:00:28;;;;;;;11.43;8.50;;;;;;;12.01;61.07;103719.06;6301384;28;20320;-70
2023/02/13 14:03:50;;;;;;;10.27;7.20;;;;;;;11.95;60.31;103719.38;6301523;28;20248;-68
2023/02/13 14:07:22;;;;;;;11.27;8.40;;;;;;;12.15;60.92;103721.97;6299441;28;20246;-69
2023/02/13 14:11:24;;;;;;;11.27;9.73;;;;;;;12.30;59.72;103729.31;6266350;28;20243;-69
2023/02/13 14:14:46;;;;;;;10.63;7.87;;;;;;;12.46;59.12;103732.09;6298749;28;20254;-70
2023/02/13 14:18:20;;;;;;;14.67;10.03;;;;;;;12.53;58.26;103722.72;6297234;28;20223;-70
2023/02/13 14:21:41;;;;;;;21.27;14.83;;;;;;;12.11;59.35;103725.78;6311528;28;20234;-69
2023/02/13 14:25:05;;;;;;;12.70;9.37;;;;;;;12.20;59.71;103719.91;6296559;28;20234;-70
2023/02/13 14:28:29;;;;;;;12.40;8.77;;;;;;;12.12;59.62;103721.25;6286414;28;20253;-70
2023/02/13 14:32:13;;;;;;;13.27;9.57;;;;;;;11.82;60.22;103721.81;6286879;28;20230;-70
2023/02/13 14:35:37;;;;;;;13.03;9.00;;;;;;;12.03;60.43;103718.06;6300963;27;20642;-69
2023/02/13 14:39:00;;;;;;;11.33;8.17;;;;;;;12.17;60.55;103724.56;6289904;28;20624;-69
2023/02/13 14:42:26;;;;;;;11.97;8.47;;;;;;;12.16;59.67;103725.56;6282212;28;20219;-70
2023/02/13 14:45:54;;;;;;;10.73;9.17;;;;;;;12.04;59.21;103729.72;6276559;28;20227;-70
2023/02/13 14:49:19;;;;;;;12.03;8.57;;;;;;;11.66;60.21;103730.69;6271614;28;20261;-75
2023/02/13 14:52:44;;;;;;;8.70;6.83;;;;;;;11.87;59.40;103718.84;6263393;28;21494;-70
2023/02/13 14:56:08;;;;;;;12.17;9.20;;;;;;;11.88;59.35;103713.38;6287100;28;20318;-70
2023/02/13 14:59:34;;;;;;;13.80;9.33;;;;;;;11.96;60.75;103719.28;6293960;28;20235;-72
2023/02/13 15:03:04;;;;;;;11.50;8.10;;;;;;;11.86;60.30;103717.13;6277310;28;20548;-68
2023/02/13 15:06:29;;;;;;;11.90;8.07;;;;;;;11.60;60.68;103710.22;6271784;28;22105;-70
2023/02/13 15:09:55;;;;;;;14.80;10.70;;;;;;;11.89;59.65;103708.88;6271477;28;21247;-70
2023/02/13 15:13:20;;;;;;;13.23;9.03;;;;;;;11.56;61.11;103705.91;6278107;28;20225;-69
2023/02/13 15:16:41;;;;;;;14.10;8.23;;;;;;;11.78;61.14;103701.28;6293962;28;20235;-69
2023/02/13 15:20:09;;;;;;;13.43;8.57;;;;;;;11.71;60.25;103701.63;6314837;27;20802;-68
2023/02/13 15:23:32;;;;;;;17.13;9.97;;;;;;;11.53;60.34;103702.50;6305593;28;20230;-69
2023/02/13 15:26:58;;;;;;;14.30;8.90;;;;;;;11.31;60.95;103705.31;6302291;28;20230;-69
2023/02/13 15:30:22;;;;;;;16.77;10.20;;;;;;;11.14;61.16;103705.22;6315812;27;20218;-69
2023/02/13 15:33:45;;;;;;;13.23;8.97;;;;;;;11.62;60.66;103711.03;6306596;28;20249;-69
2023/02/13 15:37:20;;;;;;;11.77;10.30;;;;;;;11.65;60.74;103705.50;6309087;28;20613;-69
2023/02/13 15:40:41;;;;;;;12.73;9.43;;;;;;;11.57;61.10;103698.69;6291168;28;20235;-68
2023/02/13 15:44:03;;;;;;;9.97;8.57;;;;;;;11.54;62.24;103705.13;6302634;28;20597;-69
2023/02/13 15:47:29;;;;;;;18.93;10.20;;;;;;;11.59;60.89;103696.78;6306828;28;20640;-69
2023/02/13 15:50:51;;;;;;;12.10;8.50;;;;;;;11.72;60.49;103689.91;6297576;28;20242;-69
2023/02/13 15:54:28;;;;;;;12.60;10.10;;;;;;;11.62;61.03;103694.81;6306647;28;20307;-70
2023/02/13 15:57:51;;;;;;;15.70;9.20;;;;;;;11.62;61.56;103685.84;6301405;28;20309;-69
2023/02/13 16:01:13;;;;;;;12.67;9.17;;;;;;;11.44;61.08;103684.91;6325006;27;20281;-69
2023/02/13 16:04:35;;;;;;;13.40;9.83;;;;;;;11.54;60.50;103685.31;6304545;28;20801;-68
2023/02/13 16:08:00;;;;;;;12.37;9.27;;;;;;;11.28;62.03;103679.31;6290842;28;20238;-69
2023/02/13 16:11:28;;;;;;;13.03;9.33;;;;;;;11.18;62.10;103672.59;6314789;28;20286;-68
2023/02/13 16:14:53;;;;;;;11.20;8.23;;;;;;;11.38;61.33;103678.91;6306837;28;20617;-68
2023/02/13 16:18:19;;;;;;;11.27;8.60;;;;;;;11.45;60.89;103674.97;6292551;28;20218;-69
2023/02/13 16:21:40;;;;;;;14.30;9.67;;;;;;;11.18;61.16;103675.31;6309482;28;20267;-68
2023/02/13 16:25:15;;;;;;;16.60;9.47;;;;;;;11.32;62.24;103673.78;6311017;28;20584;-69
2023/02/13 16:28:37;;;;;;;9.57;7.50;;;;;;;11.40;61.83;103674.31;6299840;27;20229;-68
2023/02/13 16:32:14;;;;;;;13.87;8.43;;;;;;;11.46;61.12;103669.50;6305073;28;20226;-69
2023/02/13 16:35:37;;;;;;;16.87;11.50;;;;;;;11.44;60.68;103673.22;6279581;27;20238;-68
2023/02/13 16:39:10;;;;;;;11.60;7.37;;;;;;;11.73;60.17;103675.41;6277957;28;20458;-68
2023/02/13 16:42:31;;;;;;;10.90;8.20;;;;;;;11.37;62.00;103680.72;6271832;28;20309;-69